createdAt,value
2022-07-30T00:01:55.374Z,20.55
2022-07-30T00:04:22.455Z,18.42
2022-07-30T00:06:49.579Z,21.15
2022-07-30T00:09:16.840Z,21.95
2022-07-30T00:11:44.103Z,23.65
2022-07-30T00:14:11.140Z,23.52
2022-07-30T00:16:39.395Z,24.50
2022-07-30T00:19:07.014Z,22.83
2022-07-30T00:21:38.650Z,25.63
2022-07-30T00:24:08.682Z,24.48
2022-07-30T00:26:35.978Z,22.80
2022-07-30T00:29:05.159Z,22.90
2022-07-30T00:31:32.825Z,25.13
2022-07-30T00:33:59.974Z,24.85
2022-07-30T00:36:27.827Z,24.25
2022-07-30T00:38:55.043Z,25.05
2022-07-30T00:41:22.565Z,24.20
2022-07-30T00:43:49.688Z,22.63
2022-07-30T00:46:16.912Z,21.77
2022-07-30T00:48:45.392Z,22.50
2022-07-30T00:51:12.563Z,20.25
2022-07-30T00:53:40.762Z,22.55
2022-07-30T00:56:07.976Z,21.50
2022-07-30T00:58:35.017Z,22.77
2022-07-30T01:01:02.124Z,21.55
2022-07-30T01:03:29.048Z,23.80
2022-07-30T01:05:56.052Z,22.85
2022-07-30T01:08:23.084Z,23.83
2022-07-30T01:10:51.952Z,24.25
2022-07-30T01:13:18.944Z,23.13
2022-07-30T01:15:46.120Z,23.48
2022-07-30T01:18:14.897Z,23.45
2022-07-30T01:21:01.884Z,22.67
2022-07-30T01:23:38.541Z,24.55
2022-07-30T01:26:12.672Z,24.50
2022-07-30T01:28:45.920Z,24.55
2022-07-30T01:31:15.298Z,24.55
2022-07-30T01:33:46.092Z,23.00
2022-07-30T01:36:16.322Z,23.75
2022-07-30T01:38:46.353Z,23.63
2022-07-30T01:41:15.031Z,23.95
2022-07-30T01:43:44.297Z,24.85
2022-07-30T01:46:14.265Z,24.38
2022-07-30T01:48:44.362Z,24.40
2022-07-30T01:51:13.346Z,26.20
2022-07-30T01:53:44.934Z,25.25
2022-07-30T01:56:16.878Z,24.88
2022-07-30T01:58:49.176Z,26.13
2022-07-30T02:01:21.133Z,26.95
2022-07-30T02:03:48.695Z,27.63
2022-07-30T02:06:25.053Z,28.67
2022-07-30T02:08:58.860Z,28.00
2022-07-30T02:11:46.415Z,28.52
2022-07-30T02:14:29.236Z,26.10
2022-07-30T02:16:59.180Z,28.90
2022-07-30T02:19:36.836Z,29.55
2022-07-30T02:22:13.620Z,31.10
2022-07-30T02:24:44.368Z,30.98
2022-07-30T02:27:24.679Z,30.30
2022-07-30T02:29:53.476Z,33.28
2022-07-30T02:32:23.844Z,32.28
2022-07-30T02:35:02.150Z,32.22
2022-07-30T02:40:18.445Z,34.03
2022-07-30T02:42:48.934Z,33.42
2022-07-30T02:47:54.026Z,36.05
2022-07-30T02:50:24.664Z,35.72
2022-07-30T02:52:54.691Z,36.45
2022-07-30T02:55:24.113Z,35.90
2022-07-30T02:57:53.662Z,36.05
2022-07-30T03:00:22.162Z,32.78
2022-07-30T03:02:56.706Z,34.05
2022-07-30T03:07:56.958Z,33.72
2022-07-30T03:10:26.045Z,33.92
2022-07-30T03:12:54.079Z,34.70
2022-07-30T03:15:21.353Z,33.72
2022-07-30T03:17:53.998Z,32.97
2022-07-30T03:20:30.391Z,32.40
2022-07-30T03:22:59.881Z,33.55
2022-07-30T03:25:31.064Z,32.95
2022-07-30T03:28:02.147Z,32.28
2022-07-30T03:30:29.991Z,33.35
2022-07-30T03:32:58.066Z,33.65
2022-07-30T03:35:26.446Z,34.88
2022-07-30T03:37:55.988Z,33.45
2022-07-30T03:40:24.110Z,33.17
2022-07-30T03:42:52.899Z,33.20
2022-07-30T03:45:23.943Z,32.03
2022-07-30T03:47:55.789Z,32.03
2022-07-30T03:50:23.905Z,31.63
2022-07-30T03:52:51.797Z,32.75
2022-07-30T03:55:21.221Z,32.00
2022-07-30T03:57:49.046Z,31.60
2022-07-30T04:00:18.280Z,32.97
2022-07-30T04:02:50.675Z,33.13
2022-07-30T04:05:20.528Z,32.80
2022-07-30T04:07:49.947Z,32.22
2022-07-30T04:10:20.507Z,32.88
2022-07-30T04:13:00.259Z,30.40
2022-07-30T04:16:40.169Z,30.38
2022-07-30T04:18:20.026Z,29.77
2022-07-30T04:20:49.307Z,30.48
2022-07-30T04:23:16.845Z,30.70
2022-07-30T04:25:45.042Z,29.98
2022-07-30T04:28:13.981Z,29.67
2022-07-30T04:30:41.741Z,29.58
2022-07-30T04:33:09.473Z,28.73
2022-07-30T04:35:55.445Z,29.33
2022-07-30T04:38:29.339Z,28.70
2022-07-30T04:40:56.662Z,30.67
2022-07-30T04:43:26.836Z,30.73
2022-07-30T04:45:54.021Z,32.17
2022-07-30T04:48:21.169Z,29.98
2022-07-30T04:50:54.089Z,31.38
2022-07-30T04:53:22.673Z,32.15
2022-07-30T04:55:56.589Z,30.97
2022-07-30T04:58:30.508Z,31.98
2022-07-30T05:00:59.600Z,31.67
2022-07-30T05:03:32.157Z,32.28
2022-07-30T05:06:00.820Z,33.38
2022-07-30T05:08:31.880Z,27.73
2022-07-30T05:11:03.139Z,33.25
2022-07-30T05:13:34.279Z,32.50
2022-07-30T05:16:07.515Z,34.38
2022-07-30T05:18:35.792Z,31.08
2022-07-30T05:21:03.197Z,34.92
2022-07-30T05:26:11.323Z,32.13
2022-07-30T05:28:52.134Z,32.50
2022-07-30T05:31:26.037Z,35.50
2022-07-30T05:34:03.026Z,34.72
2022-07-30T05:36:37.292Z,36.33
2022-07-30T05:39:04.357Z,37.25
2022-07-30T05:41:51.599Z,34.55
2022-07-30T05:44:40.990Z,33.30
2022-07-30T05:47:08.354Z,34.83
2022-07-30T05:49:35.765Z,31.73
2022-07-30T05:52:09.128Z,33.75
2022-07-30T05:54:36.237Z,33.83
2022-07-30T05:57:12.331Z,30.15
2022-07-30T05:59:40.958Z,29.63
2022-07-30T06:02:09.728Z,29.77
2022-07-30T06:04:52.405Z,31.10
2022-07-30T06:07:19.712Z,28.63
2022-07-30T06:09:47.057Z,29.00
2022-07-30T06:12:14.565Z,28.17
2022-07-30T06:14:42.304Z,28.83
2022-07-30T06:17:13.753Z,26.92
2022-07-30T06:20:04.786Z,28.90
2022-07-30T06:22:42.016Z,26.67
2022-07-30T06:25:18.507Z,24.58
2022-07-30T06:27:45.997Z,25.02
2022-07-30T06:30:13.880Z,24.17
2022-07-30T06:32:43.573Z,24.05
2022-07-30T06:35:11.634Z,23.38
2022-07-30T06:38:00.585Z,24.23
2022-07-30T06:40:28.733Z,23.42
2022-07-30T06:43:06.105Z,24.73
2022-07-30T06:45:49.171Z,20.57
2022-07-30T06:48:32.781Z,22.50
2022-07-30T06:51:02.201Z,22.40
2022-07-30T06:53:29.832Z,20.65
2022-07-30T06:56:13.290Z,20.40
2022-07-30T06:58:47.800Z,18.73
2022-07-30T07:01:54.131Z,16.10
2022-07-30T07:04:21.888Z,16.27
2022-07-30T07:06:50.440Z,14.40
2022-07-30T07:09:27.086Z,16.13
2022-07-30T07:12:14.315Z,13.35
2022-07-30T07:14:44.704Z,12.60
2022-07-30T07:17:13.392Z,11.48
2022-07-30T07:20:18.281Z,9.65
2022-07-30T07:22:51.200Z,10.27
2022-07-30T07:25:19.461Z,9.93
2022-07-30T07:28:10.976Z,8.57
2022-07-30T07:30:35.399Z,7.85
2022-07-30T07:33:04.536Z,5.95
2022-07-30T07:35:31.934Z,4.07
2022-07-30T07:38:13.688Z,4.15
2022-07-30T07:40:41.638Z,4.60
2022-07-30T07:43:09.290Z,5.15
2022-07-30T07:45:38.288Z,4.35
2022-07-30T07:48:08.935Z,4.35
2022-07-30T07:50:45.903Z,4.90
2022-07-30T07:53:22.679Z,5.32
2022-07-30T07:55:49.912Z,6.00
2022-07-30T07:58:25.365Z,6.68
2022-07-30T08:00:55.375Z,5.55
2022-07-30T08:03:28.755Z,6.65
2022-07-30T08:06:05.664Z,5.70
2022-07-30T08:09:09.441Z,5.45
2022-07-30T08:12:16.108Z,5.05
2022-07-30T08:15:05.617Z,5.32
2022-07-30T08:17:52.542Z,7.15
2022-07-30T08:20:33.235Z,6.05
2022-07-30T08:23:00.946Z,5.40
2022-07-30T08:25:29.013Z,6.80
2022-07-30T08:27:57.336Z,5.88
2022-07-30T08:30:26.022Z,7.38
2022-07-30T08:32:54.713Z,6.85
2022-07-30T08:35:23.275Z,7.20
2022-07-30T08:37:51.789Z,8.18
2022-07-30T08:40:27.356Z,7.88
2022-07-30T08:43:06.265Z,6.45
2022-07-30T08:45:35.504Z,7.20
2022-07-30T08:48:33.054Z,8.82
2022-07-30T08:51:01.641Z,10.05
2022-07-30T08:53:36.607Z,7.00
2022-07-30T08:56:07.161Z,7.10
2022-07-30T08:58:35.777Z,7.85
2022-07-30T09:01:06.706Z,10.13
2022-07-30T09:03:35.384Z,10.65
2022-07-30T09:06:05.455Z,11.95
2022-07-30T09:08:33.495Z,13.68
2022-07-30T09:11:04.209Z,14.18
2022-07-30T09:13:35.380Z,14.73
2022-07-30T09:16:04.864Z,13.88
2022-07-30T09:18:39.629Z,13.48
2022-07-30T09:21:26.760Z,11.80
2022-07-30T09:24:14.780Z,11.05
2022-07-30T09:27:07.473Z,12.95
2022-07-30T09:29:59.877Z,12.45
2022-07-30T09:32:51.658Z,15.32
2022-07-30T09:35:38.533Z,14.98
2022-07-30T09:38:26.434Z,11.63
2022-07-30T09:40:57.274Z,15.23
2022-07-30T09:43:49.251Z,13.95
2022-07-30T09:46:41.146Z,13.23
2022-07-30T09:49:15.878Z,14.05
2022-07-30T09:51:54.364Z,12.85
2022-07-30T09:54:27.925Z,12.68
2022-07-30T09:57:25.675Z,14.27
2022-07-30T10:00:19.206Z,14.18
2022-07-30T10:03:33.870Z,15.13
2022-07-30T10:06:35.380Z,15.05
2022-07-30T10:09:37.555Z,14.68
2022-07-30T10:12:11.333Z,15.45
2022-07-30T10:14:46.502Z,16.23
2022-07-30T10:17:17.421Z,15.63
2022-07-30T10:20:09.321Z,14.20
2022-07-30T10:22:56.718Z,13.98
2022-07-30T10:25:27.795Z,14.55
2022-07-30T10:28:03.268Z,13.40
2022-07-30T10:30:32.988Z,13.50
2022-07-30T10:33:01.531Z,12.85
2022-07-30T10:35:34.603Z,12.65
2022-07-30T10:38:13.686Z,11.85
2022-07-30T10:40:48.913Z,11.65
2022-07-30T10:43:52.860Z,13.77
2022-07-30T10:46:44.606Z,12.85
2022-07-30T10:49:17.599Z,12.98
2022-07-30T10:51:52.482Z,12.45
2022-07-30T10:54:36.564Z,11.10
2022-07-30T10:57:22.715Z,10.73
2022-07-30T10:59:50.588Z,11.30
2022-07-30T11:02:19.886Z,9.93
2022-07-30T11:04:47.892Z,10.38
2022-07-30T11:07:24.009Z,10.43
2022-07-30T11:10:09.384Z,10.07
2022-07-30T11:12:44.123Z,11.30
2022-07-30T11:15:18.683Z,10.05
2022-07-30T11:18:16.299Z,10.50
2022-07-30T11:20:48.803Z,12.40
2022-07-30T11:23:19.586Z,8.52
2022-07-30T11:25:51.913Z,9.43
2022-07-30T11:28:45.432Z,10.40
2022-07-30T11:31:55.609Z,10.48
2022-07-30T11:34:25.919Z,10.60
2022-07-30T11:37:18.568Z,10.55
2022-07-30T11:40:28.300Z,10.55
2022-07-30T11:43:35.650Z,9.43
2022-07-30T11:46:29.639Z,9.77
2022-07-30T11:49:08.848Z,10.02
2022-07-30T11:51:44.644Z,9.70
2022-07-30T11:54:12.779Z,10.38
2022-07-30T11:56:49.494Z,9.20
2022-07-30T11:59:17.406Z,9.60
2022-07-30T12:01:55.981Z,10.30
2022-07-30T12:04:24.494Z,9.18
2022-07-30T12:06:51.673Z,9.63
2022-07-30T12:09:27.263Z,9.10
2022-07-30T12:11:55.902Z,10.32
2022-07-30T12:14:23.122Z,12.77
2022-07-30T12:16:54.414Z,11.27
2022-07-30T12:19:24.617Z,10.07
2022-07-30T12:21:53.676Z,10.70
2022-07-30T12:24:26.706Z,9.02
2022-07-30T12:27:05.706Z,9.82
2022-07-30T12:29:36.629Z,9.15
2022-07-30T12:32:04.240Z,9.20
2022-07-30T12:34:58.304Z,7.55
2022-07-30T12:37:25.839Z,7.95
2022-07-30T12:40:16.031Z,7.57
2022-07-30T12:42:53.269Z,8.43
2022-07-30T12:45:54.192Z,8.63
2022-07-30T12:48:22.208Z,7.68
2022-07-30T12:51:06.068Z,6.93
2022-07-30T12:53:35.665Z,6.30
2022-07-30T12:56:13.238Z,6.60
2022-07-30T12:58:41.675Z,6.40
2022-07-30T13:01:11.750Z,5.88
2022-07-30T13:03:39.910Z,6.80
2022-07-30T13:06:14.036Z,5.40
2022-07-30T13:08:56.217Z,3.40
2022-07-30T13:11:38.508Z,3.10
2022-07-30T13:14:05.926Z,2.58
2022-07-30T13:16:35.558Z,3.20
2022-07-30T13:19:04.844Z,4.00
2022-07-30T13:21:31.842Z,2.97
2022-07-30T13:24:00.127Z,3.13
2022-07-30T13:26:29.474Z,2.50
2022-07-30T13:29:01.731Z,1.98
2022-07-30T13:31:29.334Z,2.03
2022-07-30T13:34:09.769Z,1.27
2022-07-30T13:36:36.935Z,1.00
2022-07-30T13:39:04.417Z,0.63
2022-07-30T13:41:31.546Z,0.70
2022-07-30T13:43:58.614Z,0.45
2022-07-30T13:46:25.609Z,0.75
2022-07-30T13:48:55.147Z,0.60
2022-07-30T13:51:22.237Z,0.20
2022-07-30T13:53:49.251Z,0.50
2022-07-30T13:56:16.855Z,0.63
2022-07-30T13:58:48.107Z,0.80
2022-07-30T14:01:17.587Z,1.00
2022-07-30T14:03:50.047Z,0.82
2022-07-30T14:06:20.528Z,0.50
2022-07-30T14:08:48.371Z,0.40
2022-07-30T14:11:16.255Z,0.20
2022-07-30T14:13:53.276Z,0.20
2022-07-30T14:16:43.445Z,0.30
2022-07-30T14:19:07.293Z,0.30
2022-07-30T14:21:34.629Z,0.30
2022-07-30T14:24:01.581Z,0.30
2022-07-30T14:26:33.424Z,0.25
2022-07-30T14:29:05.899Z,0.13
2022-07-30T14:31:33.898Z,0.10
2022-07-30T14:34:01.481Z,0.38
2022-07-30T14:36:30.102Z,0.10
2022-07-30T14:38:58.632Z,0.13
2022-07-30T14:41:27.094Z,0.10
2022-07-30T14:43:54.186Z,0.10
2022-07-30T14:46:21.282Z,0.20
2022-07-30T14:48:49.358Z,0.20
2022-07-30T14:51:29.021Z,0.20
2022-07-30T14:53:58.398Z,0.20
2022-07-30T14:56:25.436Z,0.20
2022-07-30T14:58:53.415Z,0.13
2022-07-30T15:01:42.295Z,0.35
2022-07-30T15:04:10.624Z,0.20
2022-07-30T15:06:37.855Z,0.20
2022-07-30T15:09:05.009Z,0.30
2022-07-30T15:11:45.053Z,0.20
2022-07-30T15:14:20.522Z,0.20
2022-07-30T15:16:48.055Z,0.20
2022-07-30T15:19:15.541Z,0.10
2022-07-30T15:21:44.894Z,0.10
2022-07-30T15:24:12.090Z,0.10
2022-07-30T15:26:39.384Z,0.10
2022-07-30T15:29:10.348Z,0.20
2022-07-30T15:31:40.027Z,0.10
2022-07-30T15:34:10.992Z,0.10
2022-07-30T15:36:39.109Z,0.10
2022-07-30T15:39:08.885Z,0.10
2022-07-30T15:41:37.602Z,0.10
2022-07-30T15:44:05.069Z,0.10
2022-07-30T15:46:32.292Z,0.03
2022-07-30T15:48:59.522Z,0.10
2022-07-30T15:51:32.774Z,0.10
2022-07-30T15:53:59.937Z,0.20
2022-07-30T15:56:28.339Z,0.10
2022-07-30T15:58:57.707Z,0.00
2022-07-30T16:01:25.095Z,0.00
2022-07-30T16:03:54.749Z,0.10
2022-07-30T16:06:22.335Z,0.10
2022-07-30T16:08:49.364Z,0.00
2022-07-30T16:11:16.563Z,0.00
2022-07-30T16:13:43.731Z,0.00
2022-07-30T16:16:10.833Z,0.08
2022-07-30T16:18:37.934Z,0.03
2022-07-30T16:21:06.082Z,0.10
2022-07-30T16:23:36.246Z,0.00
2022-07-30T16:26:04.862Z,0.10
2022-07-30T16:28:32.475Z,0.00
2022-07-30T16:30:59.807Z,0.10
2022-07-30T16:33:27.349Z,0.00
2022-07-30T16:35:54.858Z,0.05
2022-07-30T16:38:23.423Z,0.00
2022-07-30T16:40:50.590Z,0.00
2022-07-30T16:43:19.828Z,0.08
2022-07-30T16:45:48.226Z,0.10
2022-07-30T16:48:15.573Z,0.00
2022-07-30T16:50:42.827Z,0.10
2022-07-30T16:53:14.118Z,0.00
2022-07-30T16:55:45.261Z,0.20
2022-07-30T16:58:13.123Z,0.00
2022-07-30T17:00:40.899Z,0.08
2022-07-30T17:03:08.183Z,0.10
2022-07-30T17:05:35.777Z,0.00
2022-07-30T17:08:05.981Z,0.05
2022-07-30T17:10:35.703Z,0.10
2022-07-30T17:13:02.927Z,0.10
2022-07-30T17:15:32.512Z,0.17
2022-07-30T17:18:01.654Z,0.10
2022-07-30T17:20:30.928Z,0.38
2022-07-30T17:22:58.251Z,0.10
2022-07-30T17:25:29.482Z,0.52
2022-07-30T17:27:58.633Z,0.10
2022-07-30T17:30:28.696Z,0.10
2022-07-30T17:32:56.827Z,0.10
2022-07-30T17:35:31.274Z,0.20
2022-07-30T17:38:01.273Z,0.10
2022-07-30T17:40:31.368Z,0.63
2022-07-30T17:45:35.716Z,0.47
2022-07-30T17:48:04.732Z,0.30
2022-07-30T17:50:33.515Z,0.10
2022-07-30T17:53:04.070Z,0.10
2022-07-30T17:55:35.160Z,0.00
2022-07-30T17:58:04.707Z,0.10
2022-07-30T18:00:34.653Z,0.00
2022-07-30T18:03:02.430Z,0.10
2022-07-30T18:05:29.526Z,0.38
2022-07-30T18:07:56.551Z,0.20
2022-07-30T18:10:23.653Z,0.10
2022-07-30T18:12:50.654Z,1.20
2022-07-30T18:15:19.034Z,0.40
2022-07-30T18:17:46.270Z,0.30
2022-07-30T18:20:17.033Z,0.20
2022-07-30T18:22:44.812Z,0.22
2022-07-30T18:25:18.522Z,0.20
2022-07-30T18:27:47.808Z,0.20
2022-07-30T18:30:15.456Z,0.20
2022-07-30T18:32:43.063Z,0.30
2022-07-30T18:35:14.071Z,0.10
2022-07-30T18:37:45.975Z,0.10
2022-07-30T18:40:18.557Z,0.17
2022-07-30T18:42:49.759Z,0.10
2022-07-30T18:45:16.954Z,0.10
2022-07-30T18:47:46.570Z,0.10
2022-07-30T18:50:16.221Z,0.10
2022-07-30T18:52:43.758Z,0.10
2022-07-30T18:55:12.378Z,0.10
2022-07-30T18:57:41.478Z,0.10
2022-07-30T19:00:34.394Z,0.20
2022-07-30T19:03:00.283Z,0.10
2022-07-30T19:05:27.939Z,0.10
2022-07-30T19:07:58.092Z,0.25
2022-07-30T19:10:27.259Z,0.10
2022-07-30T19:12:55.379Z,0.10
2022-07-30T19:15:22.802Z,0.20
2022-07-30T19:17:51.326Z,0.10
2022-07-30T19:20:21.338Z,0.10
2022-07-30T19:22:49.327Z,0.10
2022-07-30T19:25:21.028Z,0.20
2022-07-30T19:27:48.020Z,0.20
2022-07-30T19:30:14.985Z,0.30
2022-07-30T19:32:42.097Z,0.20
2022-07-30T19:35:17.296Z,0.20
2022-07-30T19:37:44.352Z,0.10
2022-07-30T19:40:12.983Z,0.20
2022-07-30T19:42:41.502Z,0.10
2022-07-30T19:45:12.140Z,0.10
2022-07-30T19:47:42.243Z,0.15
2022-07-30T19:50:11.462Z,0.20
2022-07-30T19:52:40.114Z,0.20
2022-07-30T19:55:30.897Z,0.10
2022-07-30T19:58:16.038Z,0.10
2022-07-30T20:00:50.254Z,0.13
2022-07-30T20:03:25.568Z,0.22
2022-07-30T20:05:57.049Z,0.10
2022-07-30T20:08:26.403Z,0.20
2022-07-30T20:10:53.612Z,0.20
2022-07-30T20:13:44.929Z,0.10
2022-07-30T20:16:15.619Z,0.10
2022-07-30T20:18:44.313Z,0.30
2022-07-30T20:21:15.383Z,0.10
2022-07-30T20:23:44.863Z,0.10
2022-07-30T20:26:14.109Z,0.10
2022-07-30T20:28:52.360Z,0.20
2022-07-30T20:31:20.575Z,0.30
2022-07-30T20:33:49.488Z,0.30
2022-07-30T20:36:18.241Z,0.20
2022-07-30T20:38:47.151Z,0.30
2022-07-30T20:41:14.824Z,0.15
2022-07-30T20:43:51.440Z,0.20
2022-07-30T20:46:29.553Z,0.20
2022-07-30T20:48:56.749Z,0.25
2022-07-30T20:54:11.293Z,0.28
2022-07-30T20:56:38.457Z,0.30
2022-07-30T20:59:06.495Z,0.30
2022-07-30T21:01:33.755Z,0.30
2022-07-30T21:04:04.789Z,0.35
2022-07-30T21:06:31.799Z,0.70
2022-07-30T21:09:01.823Z,0.35
2022-07-30T21:11:28.900Z,0.75
2022-07-30T21:13:55.897Z,0.38
2022-07-30T21:16:23.749Z,0.47
2022-07-30T21:18:50.880Z,0.35
2022-07-30T21:21:29.282Z,0.30
2022-07-30T21:24:06.502Z,1.00
2022-07-30T21:29:10.427Z,0.82
2022-07-30T21:32:02.328Z,0.70
2022-07-30T21:34:27.414Z,0.82
2022-07-30T21:36:56.138Z,1.00
2022-07-30T21:39:28.730Z,0.75
2022-07-30T21:41:57.249Z,1.05
2022-07-30T21:44:24.577Z,1.08
2022-07-30T21:46:52.696Z,0.82
2022-07-30T21:49:21.071Z,1.13
2022-07-30T21:51:48.483Z,0.98
2022-07-30T21:54:28.418Z,1.20
2022-07-30T21:56:58.298Z,1.33
2022-07-30T21:59:27.660Z,1.15
2022-07-30T22:01:56.258Z,0.93
2022-07-30T22:04:23.466Z,0.88
2022-07-30T22:06:51.528Z,0.93
2022-07-30T22:09:33.906Z,1.20
2022-07-30T22:12:06.312Z,2.28
2022-07-30T22:14:36.451Z,1.60
2022-07-30T22:17:04.306Z,1.10
2022-07-30T22:19:32.109Z,2.00
2022-07-30T22:22:02.005Z,1.30
2022-07-30T22:24:46.875Z,1.58
2022-07-30T22:27:14.811Z,1.20
2022-07-30T22:29:43.522Z,0.90
2022-07-30T22:32:11.970Z,1.00
2022-07-30T22:34:59.395Z,0.88
2022-07-30T22:37:27.277Z,0.95
2022-07-30T22:40:02.299Z,1.25
2022-07-30T22:42:29.568Z,1.25
2022-07-30T22:44:59.014Z,0.98
2022-07-30T22:47:50.946Z,1.17
2022-07-30T22:50:15.021Z,1.08
2022-07-30T22:52:57.421Z,1.40
2022-07-30T22:55:30.133Z,1.30
2022-07-30T22:57:59.423Z,1.30
2022-07-30T23:00:28.423Z,1.20
2022-07-30T23:02:57.239Z,1.10
2022-07-30T23:05:25.140Z,1.02
2022-07-30T23:07:52.403Z,1.05
2022-07-30T23:10:20.628Z,1.02
2022-07-30T23:12:18.627Z,0.35
2022-07-30T23:12:54.039Z,0.90
2022-07-30T23:15:21.621Z,1.05
2022-07-30T23:17:48.818Z,0.95
2022-07-30T23:20:20.447Z,1.67
2022-07-30T23:22:49.111Z,1.55
2022-07-30T23:25:16.210Z,3.10
2022-07-30T23:27:43.620Z,3.10
2022-07-30T23:30:12.146Z,2.40
2022-07-30T23:32:40.156Z,2.63
2022-07-30T23:35:08.998Z,3.17
2022-07-30T23:37:48.981Z,3.80
2022-07-30T23:40:19.131Z,4.43
2022-07-30T23:42:50.986Z,3.83
2022-07-30T23:45:19.042Z,5.03
2022-07-30T23:48:00.737Z,3.72
2022-07-30T23:53:25.311Z,3.47
2022-07-30T23:55:51.431Z,4.50
2022-07-30T23:58:40.705Z,4.55
